createdAt,value
2019-04-26T00:01:36.582Z,1.33
2019-04-26T00:06:40.248Z,0.97
2019-04-26T00:11:51.096Z,1.50
2019-04-26T00:16:58.819Z,2.27
2019-04-26T00:22:02.653Z,4.07
2019-04-26T00:27:06.402Z,4.00
2019-04-26T00:32:10.683Z,2.20
2019-04-26T00:37:15.903Z,2.60
2019-04-26T00:42:20.634Z,2.03
2019-04-26T00:47:26.029Z,4.30
2019-04-26T00:52:29.905Z,2.60
2019-04-26T00:57:33.630Z,3.53
2019-04-26T01:02:38.749Z,3.00
2019-04-26T01:07:43.877Z,3.33
2019-04-26T01:12:47.376Z,2.40
2019-04-26T01:17:50.797Z,3.10
2019-04-26T01:22:57.266Z,3.77
2019-04-26T01:28:01.715Z,5.40
2019-04-26T01:33:05.542Z,3.23
2019-04-26T01:38:11.996Z,4.87
2019-04-26T01:43:26.441Z,5.27
2019-04-26T01:48:46.030Z,5.80
2019-04-26T01:53:52.151Z,4.03
2019-04-26T01:58:55.729Z,6.27
2019-04-26T02:03:59.854Z,6.57
2019-04-26T02:09:05.431Z,9.57
2019-04-26T02:14:09.262Z,5.13
2019-04-26T02:19:12.816Z,6.77
2019-04-26T02:24:20.837Z,6.53
2019-04-26T02:29:27.019Z,7.17
2019-04-26T02:34:36.013Z,7.53
2019-04-26T02:39:41.446Z,7.03
2019-04-26T02:44:49.603Z,7.07
2019-04-26T02:49:56.838Z,12.83
2019-04-26T02:55:03.316Z,10.03
2019-04-26T03:00:41.455Z,10.30
2019-04-26T03:05:46.023Z,11.57
2019-04-26T03:10:52.477Z,9.37
2019-04-26T03:16:16.348Z,10.93
2019-04-26T03:21:51.086Z,12.00
2019-04-26T03:27:12.582Z,10.73
2019-04-26T03:32:33.819Z,13.17
2019-04-26T03:37:50.098Z,12.93
2019-04-26T03:43:13.082Z,11.23
2019-04-26T03:48:31.339Z,13.40
2019-04-26T03:53:39.740Z,10.73
2019-04-26T03:58:47.625Z,11.80
2019-04-26T04:03:53.207Z,10.27
2019-04-26T04:09:08.888Z,12.63
2019-04-26T04:14:33.620Z,11.57
2019-04-26T04:20:07.453Z,11.17
2019-04-26T04:25:19.602Z,11.37
2019-04-26T04:30:32.079Z,13.07
2019-04-26T04:35:41.733Z,15.07
2019-04-26T04:41:15.646Z,10.67
2019-04-26T04:46:49.904Z,12.17
2019-04-26T04:52:19.798Z,13.80
2019-04-26T04:57:32.459Z,12.33
2019-04-26T05:03:04.575Z,11.97
2019-04-26T05:08:27.878Z,12.60
2019-04-26T05:13:37.245Z,12.00
2019-04-26T05:19:03.453Z,14.23
2019-04-26T05:24:10.217Z,10.33
2019-04-26T05:29:52.090Z,11.30
2019-04-26T05:35:15.431Z,10.50
2019-04-26T05:40:51.530Z,8.77
2019-04-26T05:46:16.232Z,8.33
2019-04-26T05:51:43.215Z,10.17
2019-04-26T05:57:09.395Z,9.40
2019-04-26T06:02:46.899Z,8.70
2019-04-26T06:14:08.870Z,7.77
2019-04-26T06:19:22.575Z,10.87
2019-04-26T06:24:49.772Z,7.07
2019-04-26T06:30:15.816Z,7.27
2019-04-26T06:35:22.983Z,7.20
2019-04-26T06:40:53.461Z,6.17
2019-04-26T06:46:23.288Z,7.20
2019-04-26T06:51:39.462Z,7.37
2019-04-26T06:57:23.822Z,10.20
2019-04-26T07:02:57.519Z,6.20
2019-04-26T07:08:36.886Z,7.63
2019-04-26T07:14:15.712Z,7.70
2019-04-26T07:20:04.208Z,7.53
2019-04-26T07:25:27.112Z,8.57
2019-04-26T07:30:42.580Z,7.50
2019-04-26T07:36:13.809Z,9.03
2019-04-26T07:41:30.432Z,7.43
2019-04-26T07:46:42.679Z,8.03
2019-04-26T07:51:55.175Z,7.20
2019-04-26T07:57:10.785Z,6.57
2019-04-26T08:02:21.932Z,9.90
2019-04-26T08:07:31.109Z,8.50
2019-04-26T08:12:37.280Z,8.67
2019-04-26T08:17:48.203Z,8.13
2019-04-26T08:23:37.204Z,7.93
2019-04-26T08:28:24.828Z,7.17
2019-04-26T08:38:48.831Z,7.27
2019-04-26T08:44:08.613Z,9.97
2019-04-26T08:49:31.352Z,8.53
2019-04-26T08:54:39.743Z,10.00
2019-04-26T08:59:49.020Z,7.37
2019-04-26T09:04:57.155Z,5.43
2019-04-26T09:10:10.716Z,6.13
2019-04-26T09:15:17.240Z,7.33
2019-04-26T09:20:28.638Z,8.83
2019-04-26T09:25:40.901Z,7.77
2019-04-26T09:36:12.244Z,9.10
2019-04-26T09:41:15.740Z,9.97
2019-04-26T09:46:23.622Z,11.50
2019-04-26T09:51:27.437Z,17.27
2019-04-26T09:56:30.947Z,14.13
2019-04-26T10:01:34.382Z,13.87
2019-04-26T10:06:37.862Z,15.13
2019-04-26T10:11:43.596Z,16.37
2019-04-26T10:16:52.316Z,16.53
2019-04-26T10:21:56.038Z,21.03
2019-04-26T10:27:03.439Z,27.67
2019-04-26T10:32:06.370Z,24.43
2019-04-26T10:37:09.812Z,28.13
2019-04-26T10:42:13.527Z,26.27
2019-04-26T10:47:17.058Z,25.40
2019-04-26T10:52:34.259Z,24.80
2019-04-26T10:57:41.910Z,27.03
2019-04-26T11:02:46.035Z,24.97
2019-04-26T11:07:49.557Z,26.53
2019-04-26T11:12:53.064Z,29.70
2019-04-26T11:17:56.731Z,24.63
2019-04-26T11:23:00.172Z,25.70
2019-04-26T11:28:05.921Z,28.77
2019-04-26T11:33:11.148Z,30.93
2019-04-26T11:38:14.326Z,32.47
2019-04-26T11:43:21.004Z,29.50
2019-04-26T11:48:25.405Z,28.87
2019-04-26T11:53:33.394Z,33.07
2019-04-26T11:58:36.662Z,30.13
2019-04-26T12:03:41.893Z,30.70
2019-04-26T12:08:49.857Z,36.07
2019-04-26T12:13:55.308Z,35.80
2019-04-26T12:18:58.800Z,31.23
2019-04-26T12:24:02.242Z,32.23
2019-04-26T12:29:06.569Z,33.33
2019-04-26T12:34:09.952Z,32.80
2019-04-26T12:39:15.039Z,31.50
2019-04-26T12:44:18.555Z,31.30
2019-04-26T12:49:24.357Z,33.07
2019-04-26T12:54:27.211Z,30.27
2019-04-26T12:59:43.342Z,31.73
2019-04-26T13:04:36.648Z,29.03
2019-04-26T13:09:42.866Z,29.50
2019-04-26T13:14:54.208Z,30.43
2019-04-26T13:19:57.588Z,29.93
2019-04-26T13:25:02.173Z,28.70
2019-04-26T13:30:10.642Z,28.43
2019-04-26T13:35:13.036Z,26.07
2019-04-26T13:40:16.571Z,28.47
2019-04-26T13:45:37.990Z,30.03
2019-04-26T13:50:43.049Z,28.10
2019-04-26T13:55:46.617Z,29.37
2019-04-26T14:00:50.359Z,29.87
2019-04-26T14:05:53.789Z,27.23
2019-04-26T14:10:57.366Z,28.70
2019-04-26T14:16:00.882Z,27.97
2019-04-26T14:21:06.937Z,29.10
2019-04-26T14:26:14.737Z,26.60
2019-04-26T14:31:18.514Z,31.47
2019-04-26T14:36:26.826Z,30.30
2019-04-26T14:41:28.854Z,28.27
2019-04-26T14:46:32.436Z,27.40
2019-04-26T14:51:35.844Z,30.87
2019-04-26T14:56:51.704Z,32.43
2019-04-26T15:01:48.833Z,32.63
2019-04-26T15:06:58.214Z,29.47
2019-04-26T15:12:01.386Z,29.97
2019-04-26T15:17:04.325Z,29.80
2019-04-26T15:22:10.385Z,30.07
2019-04-26T15:27:13.058Z,33.23
2019-04-26T15:32:16.533Z,30.33
2019-04-26T15:37:24.007Z,28.73
2019-04-26T15:42:29.319Z,32.63
2019-04-26T15:47:52.446Z,28.43
2019-04-26T15:52:56.098Z,30.20
2019-04-26T15:58:02.703Z,33.93
2019-04-26T16:03:07.451Z,30.07
2019-04-26T16:08:09.984Z,30.80
2019-04-26T16:13:21.068Z,27.03
2019-04-26T16:18:19.207Z,29.27
2019-04-26T16:23:24.168Z,26.62
2019-04-26T16:28:31.023Z,30.60
2019-04-26T16:33:36.315Z,25.37
2019-04-26T16:38:40.630Z,26.77
2019-04-26T16:43:52.206Z,24.30
2019-04-26T16:48:49.744Z,27.43
2019-04-26T16:54:06.550Z,23.20
2019-04-26T16:59:02.839Z,22.10
2019-04-26T17:04:11.232Z,21.00
2019-04-26T17:09:14.754Z,19.70
2019-04-26T17:14:18.529Z,16.93
2019-04-26T17:19:22.915Z,16.53
2019-04-26T17:24:33.965Z,18.17
2019-04-26T17:29:37.611Z,15.77
2019-04-26T17:34:41.102Z,18.30
2019-04-26T17:39:47.580Z,18.03
2019-04-26T17:44:49.689Z,15.40
2019-04-26T17:49:53.176Z,16.60
2019-04-26T17:54:56.639Z,14.20
2019-04-26T18:00:07.147Z,17.23
2019-04-26T18:05:07.247Z,19.27
2019-04-26T18:10:10.916Z,23.27
2019-04-26T18:15:19.163Z,16.63
2019-04-26T18:20:25.225Z,14.77
2019-04-26T18:25:28.750Z,29.33
2019-04-26T18:30:32.959Z,16.23
2019-04-26T18:35:36.436Z,23.80
2019-04-26T18:40:57.121Z,15.23
2019-04-26T18:45:46.731Z,13.03
2019-04-26T18:50:50.164Z,15.23
2019-04-26T18:55:54.477Z,13.57
2019-04-26T19:01:01.712Z,12.53
2019-04-26T19:06:05.552Z,13.17
2019-04-26T19:11:11.880Z,12.47
2019-04-26T19:16:33.269Z,13.93
2019-04-26T19:21:40.954Z,12.00
2019-04-26T19:26:50.005Z,12.37
2019-04-26T19:31:52.207Z,12.50
2019-04-26T19:36:56.404Z,15.93
2019-04-26T19:42:02.490Z,16.37
2019-04-26T19:47:13.642Z,17.80
2019-04-26T19:52:26.864Z,15.20
2019-04-26T19:57:33.366Z,12.90
2019-04-26T20:02:39.268Z,12.70
2019-04-26T20:07:42.321Z,12.63
2019-04-26T20:12:45.766Z,13.60
2019-04-26T20:17:52.873Z,13.80
2019-04-26T20:22:59.357Z,13.07
2019-04-26T20:28:03.093Z,14.00
2019-04-26T20:33:06.623Z,13.13
2019-04-26T20:38:11.883Z,14.43
2019-04-26T20:43:25.819Z,13.70
2019-04-26T20:48:21.611Z,13.60
2019-04-26T20:53:25.171Z,12.87
2019-04-26T20:58:30.368Z,13.00
2019-04-26T21:03:41.891Z,12.70
2019-04-26T21:08:39.622Z,11.97
2019-04-26T21:13:43.120Z,11.17
2019-04-26T21:18:46.618Z,12.30
2019-04-26T21:23:51.719Z,13.47
2019-04-26T21:28:56.991Z,18.20
2019-04-26T21:34:07.859Z,18.97
2019-04-26T21:39:26.742Z,21.60
2019-04-26T21:44:30.186Z,15.80
2019-04-26T21:49:35.756Z,19.47
2019-04-26T21:54:38.765Z,20.67
2019-04-26T21:59:44.089Z,21.53
2019-04-26T22:04:47.423Z,18.90
2019-04-26T22:09:52.952Z,21.63
2019-04-26T22:20:28.848Z,18.80
2019-04-26T22:25:36.572Z,19.23
2019-04-26T22:30:39.976Z,21.93
2019-04-26T22:35:43.402Z,20.57
2019-04-26T22:40:48.576Z,19.40
2019-04-26T22:45:53.950Z,22.27
2019-04-26T22:50:58.822Z,22.83
2019-04-26T22:56:04.597Z,26.47
2019-04-26T23:01:07.852Z,20.50
2019-04-26T23:06:12.743Z,27.23
2019-04-26T23:11:16.563Z,28.53
2019-04-26T23:16:33.703Z,22.43
2019-04-26T23:21:44.280Z,23.00
2019-04-26T23:26:46.405Z,25.07
2019-04-26T23:31:49.822Z,21.07
2019-04-26T23:36:54.051Z,19.43
2019-04-26T23:41:57.554Z,22.33
2019-04-26T23:47:02.324Z,21.17
2019-04-26T23:52:06.428Z,21.10
2019-04-26T23:57:09.834Z,22.33
